Terminal Aerodrome Forecast
Issued by NWS Tampa Bay Area, FL

Home | Current Version | Previous Version | Text Only | Print | Product List | Glossary On
Versions: 1 2 3 4 5 6 7 8 9 10 11 12 13 14 15 16 17 18 19 20 21 22 23 24 25 26 27 28
098
FTUS42 KTBW 052342
TAFTPA
TAF
KTPA 052342Z 0600/0624 19010KT P6SM FEW070 SCT250
     FM060600 18012G18KT 6SM BR VCSH FEW015 SCT025 BKN100
     FM061200 20014G22KT 6SM BR VCTS SCT015CB OVC025
     FM062100 23010KT P6SM VCTS SCT015CB OVC025=

USA.gov is the U.S. government's official web portal to all federal, state and local government web resources and services.